Fredericksburg, TX

8:02 PM CST on March 01, 2015 (GMT -0600)
KNOPP SCHOOL RD | Change Station
CLOSE
Current Station
Personal Weather Station
Location: Fredericksburg, TX
Elevation: 1752 ft
Nearby Weather Stations

Elev 1752 ft 30.33 °N, 98.80 °W | Updated 6 minutes ago

Overcast
Overcast
38.7 °F
Feels Like 39 °F
N
2.2
Wind Variable Wind from NE

Today
High -- | Low -- °F
--% Chance of Precip.
Yesterday
High -- | Low -- °F
Precip. -- in
7:01 AM 6:34 PM
Waxing Gibbous, 88% visible
Pressure 30.26 in
Visibility 4.0 miles
Clouds Overcast 400 ft
Windchill 39 °F
Dew Point 36 °F
Humidity 92%
Rainfall 0.15 in
Snow Depth Not available.
UV 0 out of 12
Pollen 7.70 out of 12
Air Quality Not available.
Flu Activity Not available.
METAR KT82 020155Z AUTO 04006KT 4SM -DZ OVC004 04/04 A3026 RMK AO2 T00400035

More Conditions Fewer Conditions

Pressure 30.26 in
Visibility 4.0 miles
Clouds Overcast 400 ft
Windchill 39 °F
Dew Point 36 °F
Humidity 92%
Rainfall 0.15 in
Snow Depth Not available.
UV 0 out of 12
Pollen 7.70 out of 12
Air Quality Not available.
Flu Activity Not available.
METAR KT82 020155Z AUTO 04006KT 4SM -DZ OVC004 04/04 A3026 RMK AO2 T00400035

More Conditions Fewer Conditions

Nowcast | as of 4:08 PM CST on March 1, 2015

Areas of light rain and drizzle continue to move north this afternoon and impact locations along and east of the i35 corridor. The thicker drizzle and rain patches may result in brief visibility reductions down to a couple miles.

×

10-Day Weather Forecast

Almanac

Astronomy

Mar. 01, 2015 Rise Set
Actual Time
Civil Twilight
Nautical Twilight
Astronomical Twilight
Moon
Length of Visible Light
Length of Day
Tomorrow will be .
, % of the Moon is Illuminated

Today's Extremes

State Highs State Lows

Community

WunderPhotos

Upload Photos

1,801,679 photos uploaded!

WunderBlogs® & News

Nearby

Air Quality

  Air Quality AQ Index Pollutant
Not available.

Snow Depth

Station Depth Elevation

Earthquake Activity

City Distance Mag. Time & Date
Minimum magnitude displayed is 2.5.

Coastal Water Temperatures

Place Temperature

Nearby Weather Stations